Airport Name : Andahuaylas

Other Name : Andahuaylas

ICAO : SPHY

IATA : ANS

FAA :

Latitude : -13.706408

Longitude : -73.350378

Country : Peru

Local Date and Time : 22 May 2024 15:30

 

TAF (Terminal Aerodrome Forecast)

TAF SPHY 221700Z 2218/2318 04007KT 9999 FEW020 SCT070 TX19/2220Z TN04/2311Z

 

METAR (METeorological Aerodrome Report)

SPHY 221900Z 06006KT 9999 SCT012 19/09 Q1034 RMK BIRD HAZARD RWY03/21 PP000

SPHY 221800Z 33007KT 9999 FEW012 18/08 Q1035 RMK BIRD HAZARD RWY03/21 PP000

SPHY 221700Z 07003KT 9999 FEW012 17/07 Q1036 RMK BIRD HAZARD RWY03/21 PP000